Airport ICAO


11:55 UTC

25°C


An affordable passengers' Moving Map for your aircraft. Made for the iPad and the iPhone
More information here

EGSS Stansted


London UNITED KINGDOM   VFR


METAR EGSS 191150Z AUTO 12005KT 060V160 9999 NCD 25/10 Q1024 0h05min

TAF EGSS 191055Z 1912/2018 VRB05KT CAVOK BECMG 1920/1923 8000 PROB30 TEMPO 2003/2008 3000 BR BKN006 BECMG 2008/2011 CAVOK 1h00min





NOTAMS

OPEN